Time;durP1;ratioP1;P1;durP2;ratioP2;P2;SDS_P1;SDS_P2;PMS_P1;PMS_P2;Temp;Humidity;BMP_temperature;BMP_pressure;BME280_temperature;BME280_humidity;BME280_pressure;Samples;Min_cycle;Max_cycle;Signal;HPM_P1;HPM_P2
2022/04/04 00:01:15;;;;;;;8.68;1.33;;;8.20;95.30;;;;;;5006733;28;20313;-71
2022/04/04 00:03:43;;;;;;;3.47;1.25;;;8.20;95.40;;;;;;5022852;28;20328;-70
2022/04/04 00:06:09;;;;;;;3.03;0.90;;;8.20;95.50;;;;;;5024061;28;20017;-69
2022/04/04 00:08:35;;;;;;;4.53;1.10;;;8.20;95.50;;;;;;5006576;28;20037;-69
2022/04/04 00:11:01;;;;;;;4.90;1.23;;;8.20;95.60;;;;;;5023470;28;20309;-70
2022/04/04 00:13:27;;;;;;;9.20;1.15;;;8.20;95.70;;;;;;5004857;28;20392;-69
2022/04/04 00:15:55;;;;;;;3.33;1.27;;;8.30;95.80;;;;;;5006798;28;20026;-70
2022/04/04 00:18:20;;;;;;;3.47;1.20;;;8.20;95.90;;;;;;5023235;28;20037;-71
2022/04/04 00:20:46;;;;;;;8.93;1.75;;;8.20;96.00;;;;;;5006919;28;20239;-69
2022/04/04 00:23:12;;;;;;;4.22;1.45;;;8.20;96.30;;;;;;5027953;28;20022;-69
2022/04/04 00:25:39;;;;;;;5.82;1.30;;;8.20;96.40;;;;;;5006473;28;20029;-68
2022/04/04 00:28:05;;;;;;;9.63;1.23;;;8.20;96.60;;;;;;5006596;28;20046;-69
2022/04/04 00:30:31;;;;;;;4.30;1.20;;;8.20;96.70;;;;;;5006544;28;20388;-69
2022/04/04 00:32:56;;;;;;;5.10;1.13;;;8.20;96.80;;;;;;5022958;28;20061;-70
2022/04/04 00:35:22;;;;;;;4.75;1.50;;;8.20;96.90;;;;;;5006422;28;20089;-69
2022/04/04 00:37:48;;;;;;;4.88;1.33;;;8.20;97.00;;;;;;4989831;28;20072;-70
2022/04/04 00:40:14;;;;;;;5.85;1.23;;;8.20;97.10;;;;;;5006278;28;20026;-69
2022/04/04 00:42:40;;;;;;;5.63;1.05;;;8.20;97.10;;;;;;5022030;28;20029;-70
2022/04/04 00:45:07;;;;;;;8.73;1.17;;;8.20;97.20;;;;;;5022735;28;20042;-70
2022/04/04 00:47:32;;;;;;;3.03;0.70;;;8.30;97.20;;;;;;5005874;28;20096;-70
2022/04/04 00:49:58;;;;;;;6.65;1.05;;;8.30;97.30;;;;;;5022687;28;20026;-71
2022/04/04 00:52:24;;;;;;;4.82;0.90;;;8.30;97.30;;;;;;5023319;28;20049;-70
2022/04/04 00:54:50;;;;;;;3.45;1.00;;;8.40;97.40;;;;;;5022468;28;20064;-69
2022/04/04 00:57:17;;;;;;;6.32;1.15;;;8.40;97.50;;;;;;5027292;28;20018;-69
2022/04/04 00:59:44;;;;;;;4.85;1.35;;;8.30;97.40;;;;;;5026532;28;20028;-70
2022/04/04 01:02:11;;;;;;;5.72;1.20;;;8.40;97.40;;;;;;5010393;28;20120;-69
2022/04/04 01:04:37;;;;;;;5.85;1.13;;;8.30;97.50;;;;;;5026415;28;20030;-69
2022/04/04 01:07:03;;;;;;;6.55;0.88;;;8.40;97.60;;;;;;5026088;28;20257;-71
2022/04/04 01:09:31;;;;;;;6.45;1.20;;;8.40;97.60;;;;;;5009794;28;20021;-71
2022/04/04 01:12:12;;;;;;;6.95;1.27;;;8.40;97.70;;;;;;5026083;28;20241;-73
2022/04/04 01:14:46;;;;;;;5.07;0.90;;;8.40;97.70;;;;;;5024946;28;20302;-70
2022/04/04 01:17:13;;;;;;;8.88;1.92;;;8.40;97.60;;;;;;4994393;28;20022;-72
2022/04/04 01:19:39;;;;;;;9.32;1.23;;;8.40;97.60;;;;;;5009624;28;20017;-70
2022/04/04 01:22:08;;;;;;;4.72;1.23;;;8.40;97.60;;;;;;5026099;28;20024;-71
2022/04/04 01:24:34;;;;;;;12.48;1.55;;;8.40;97.60;;;;;;5009844;28;20022;-70
2022/04/04 01:27:00;;;;;;;2.40;0.98;;;8.40;98.00;;;;;;5025636;28;20026;-70
2022/04/04 01:29:26;;;;;;;5.97;1.10;;;8.40;97.80;;;;;;5025557;28;20022;-71
2022/04/04 01:31:52;;;;;;;3.40;1.08;;;8.40;97.90;;;;;;5009714;28;20025;-70
2022/04/04 01:34:19;;;;;;;5.63;1.35;;;8.40;98.00;;;;;;5026994;28;20013;-72
2022/04/04 01:36:45;;;;;;;4.72;1.10;;;8.40;98.10;;;;;;4993210;28;20025;-70
2022/04/04 01:39:11;;;;;;;8.30;1.58;;;8.40;98.20;;;;;;5009490;28;20087;-70
2022/04/04 01:41:37;;;;;;;3.97;1.00;;;8.40;98.20;;;;;;5009011;28;20332;-72
2022/04/04 01:44:03;;;;;;;5.45;1.40;;;8.40;98.30;;;;;;4993322;28;20026;-69
2022/04/04 01:46:29;;;;;;;5.50;1.25;;;8.40;98.50;;;;;;5008714;28;20038;-70
2022/04/04 01:48:58;;;;;;;3.05;0.85;;;8.50;98.70;;;;;;5009396;28;20025;-71
2022/04/04 01:51:25;;;;;;;6.32;1.30;;;8.50;98.80;;;;;;5025470;28;20041;-70
2022/04/04 01:53:51;;;;;;;7.10;1.13;;;8.40;99.00;;;;;;5009477;28;20026;-70
2022/04/04 01:56:17;;;;;;;7.13;1.50;;;8.40;99.30;;;;;;5041955;28;20309;-70
2022/04/04 01:58:44;;;;;;;4.53;1.23;;;8.40;99.60;;;;;;5026700;28;20084;-70
2022/04/04 02:01:18;;;;;;;7.20;1.50;;;8.40;99.90;;;;;;5025510;28;20025;-71
2022/04/04 02:03:46;;;;;;;7.22;1.67;;;8.30;99.90;;;;;;5009968;28;20221;-71
2022/04/04 02:06:13;;;;;;;7.18;1.60;;;8.30;99.90;;;;;;5008453;28;20014;-70
2022/04/04 02:08:38;;;;;;;9.57;1.65;;;8.30;99.90;;;;;;5025195;28;20036;-71
2022/04/04 02:11:05;;;;;;;4.20;1.33;;;8.30;99.90;;;;;;5026255;28;20057;-70
2022/04/04 02:13:31;;;;;;;7.70;1.80;;;8.20;99.90;;;;;;5024935;28;20217;-71
2022/04/04 02:16:00;;;;;;;4.63;1.55;;;8.10;99.90;;;;;;5025168;28;20085;-71
2022/04/04 02:18:28;;;;;;;14.55;2.10;;;8.00;99.90;;;;;;5025147;28;20060;-70
2022/04/04 02:20:54;;;;;;;7.00;1.90;;;7.90;99.90;;;;;;5026187;28;20089;-69
2022/04/04 02:23:20;;;;;;;6.85;2.42;;;7.80;99.90;;;;;;5024947;28;20194;-71
2022/04/04 02:25:46;;;;;;;5.22;2.10;;;7.70;99.90;;;;;;5008690;28;20037;-72
2022/04/04 02:28:13;;;;;;;3.33;2.38;;;7.60;99.90;;;;;;5024540;28;20068;-70
2022/04/04 02:30:41;;;;;;;6.63;2.70;;;7.60;99.90;;;;;;5008503;28;20029;-70
2022/04/04 02:33:08;;;;;;;4.90;2.38;;;7.50;99.90;;;;;;5008630;28;20225;-69
2022/04/04 02:35:36;;;;;;;5.18;2.60;;;7.50;99.90;;;;;;4991987;28;20096;-70
2022/04/04 02:38:02;;;;;;;5.63;2.30;;;7.50;99.90;;;;;;5024759;28;20022;-70
2022/04/04 02:40:29;;;;;;;6.25;2.80;;;7.50;99.90;;;;;;5008396;28;20217;-69
2022/04/04 02:42:55;;;;;;;6.80;2.67;;;7.40;99.90;;;;;;5024054;28;20436;-70
2022/04/04 02:45:21;;;;;;;6.35;2.63;;;7.40;99.90;;;;;;4991896;28;20026;-69
2022/04/04 02:47:47;;;;;;;3.08;2.33;;;7.40;99.90;;;;;;4988240;28;20367;-70
2022/04/04 02:50:14;;;;;;;4.75;2.03;;;7.40;99.90;;;;;;5021129;28;20080;-69
2022/04/04 02:52:40;;;;;;;8.75;2.55;;;7.40;99.90;;;;;;5004579;28;20093;-71
2022/04/04 02:57:52;;;;;;;5.82;2.75;;;7.30;99.90;;;;;;5004757;28;20041;-69
2022/04/04 03:00:19;;;;;;;4.75;2.45;;;7.30;99.90;;;;;;5020834;28;20023;-71
2022/04/04 03:02:45;;;;;;;3.72;2.42;;;7.30;99.90;;;;;;5005951;28;20022;-70
2022/04/04 03:05:11;;;;;;;6.55;2.72;;;7.30;99.90;;;;;;5020785;28;20058;-70
2022/04/04 03:07:37;;;;;;;6.57;2.40;;;7.20;99.90;;;;;;4988185;28;20210;-70
2022/04/04 03:10:03;;;;;;;2.72;2.33;;;7.30;99.90;;;;;;5004572;28;20081;-70
2022/04/04 03:12:29;;;;;;;5.22;2.50;;;7.30;99.90;;;;;;5020500;28;20032;-71
2022/04/04 03:14:56;;;;;;;6.22;2.53;;;7.30;99.90;;;;;;4986523;28;20340;-71
2022/04/04 03:17:21;;;;;;;5.75;2.70;;;7.30;99.90;;;;;;5020599;28;20022;-70
2022/04/04 03:19:47;;;;;;;3.83;2.83;;;7.30;99.90;;;;;;5019105;28;20022;-71
2022/04/04 03:22:14;;;;;;;3.03;2.42;;;7.20;99.90;;;;;;5005386;28;20014;-70
2022/04/04 03:24:39;;;;;;;9.75;2.65;;;7.30;99.90;;;;;;5004167;28;20026;-70
2022/04/04 03:27:05;;;;;;;5.38;3.13;;;7.20;99.90;;;;;;5004040;28;20309;-70
2022/04/04 03:29:31;;;;;;;7.30;3.10;;;7.20;99.90;;;;;;5004991;28;20026;-71
2022/04/04 03:31:58;;;;;;;6.55;2.50;;;7.30;99.90;;;;;;4987632;28;20028;-71
2022/04/04 03:34:25;;;;;;;5.53;3.55;;;7.30;99.90;;;;;;5003780;28;20324;-69
2022/04/04 03:36:51;;;;;;;7.40;2.90;;;7.30;99.90;;;;;;5005121;28;20042;-69
2022/04/04 03:39:17;;;;;;;4.80;2.80;;;7.20;99.90;;;;;;5003988;28;20340;-71
2022/04/04 03:41:45;;;;;;;3.70;2.33;;;7.20;99.90;;;;;;5004644;28;20033;-70
2022/04/04 03:44:12;;;;;;;4.70;2.90;;;7.20;99.90;;;;;;4987946;28;20276;-70
2022/04/04 03:46:38;;;;;;;5.72;2.95;;;7.20;99.90;;;;;;5008992;28;20049;-72
2022/04/04 03:49:05;;;;;;;7.53;3.40;;;7.20;99.90;;;;;;5006930;28;20117;-70
2022/04/04 03:51:31;;;;;;;4.90;2.70;;;7.20;99.90;;;;;;4990654;28;20022;-72
2022/04/04 03:53:57;;;;;;;6.10;2.80;;;7.20;99.90;;;;;;5023399;28;20064;-71
2022/04/04 03:56:23;;;;;;;6.60;3.10;;;7.20;99.90;;;;;;5007010;28;20130;-69
2022/04/04 03:58:50;;;;;;;7.50;2.70;;;7.20;99.90;;;;;;5006793;28;20253;-71
2022/04/04 04:01:16;;;;;;;5.35;3.00;;;7.20;99.90;;;;;;5024367;28;20018;-70
2022/04/04 04:03:42;;;;;;;6.43;2.92;;;7.20;99.90;;;;;;5006293;28;20108;-71
2022/04/04 04:06:11;;;;;;;7.28;2.97;;;7.20;99.90;;;;;;5006505;28;20217;-71
2022/04/04 04:08:39;;;;;;;8.93;3.13;;;7.20;99.90;;;;;;5022763;28;20030;-71
2022/04/04 04:11:05;;;;;;;4.63;3.00;;;7.20;99.90;;;;;;5022726;28;20025;-71
2022/04/04 04:13:31;;;;;;;6.10;3.28;;;7.20;99.90;;;;;;4990066;28;20101;-70
2022/04/04 04:15:58;;;;;;;8.40;3.53;;;7.30;99.90;;;;;;5021082;28;20021;-71
2022/04/04 04:18:24;;;;;;;5.43;3.08;;;7.30;99.90;;;;;;5022496;28;20018;-71
2022/04/04 04:20:50;;;;;;;6.28;3.00;;;7.30;99.90;;;;;;5022936;28;20025;-70
2022/04/04 04:23:17;;;;;;;7.40;3.13;;;7.30;99.90;;;;;;4990272;28;20319;-71
2022/04/04 04:25:43;;;;;;;5.88;2.70;;;7.30;99.90;;;;;;5022917;28;20305;-72
2022/04/04 04:28:10;;;;;;;9.80;3.05;;;7.20;99.90;;;;;;5039304;28;20498;-70
2022/04/04 04:30:36;;;;;;;5.38;3.45;;;7.20;99.90;;;;;;5006343;28;20026;-71
2022/04/04 04:33:03;;;;;;;4.95;3.28;;;7.20;99.90;;;;;;5023969;28;20077;-71
2022/04/04 04:35:29;;;;;;;7.78;3.65;;;7.10;99.90;;;;;;5007865;28;20089;-73
2022/04/04 04:37:55;;;;;;;8.38;4.10;;;7.10;99.90;;;;;;5004549;28;20022;-70
2022/04/04 04:40:22;;;;;;;4.50;2.90;;;7.10;99.90;;;;;;5019255;28;20224;-70
2022/04/04 04:42:50;;;;;;;7.32;3.60;;;7.10;99.90;;;;;;5019012;28;20031;-70
2022/04/04 04:45:16;;;;;;;7.22;3.15;;;7.10;99.90;;;;;;4986977;28;20022;-69
2022/04/04 04:47:42;;;;;;;9.23;3.55;;;7.00;99.90;;;;;;5000562;28;20061;-70
2022/04/04 04:50:08;;;;;;;10.82;3.83;;;7.10;99.90;;;;;;5005860;28;20265;-72
2022/04/04 04:52:34;;;;;;;6.57;3.40;;;7.10;99.90;;;;;;5023705;28;20052;-72
2022/04/04 04:55:01;;;;;;;7.75;3.42;;;7.20;99.90;;;;;;5023743;28;20024;-72
2022/04/04 04:57:28;;;;;;;7.30;3.95;;;7.20;99.90;;;;;;5006058;28;20097;-72
2022/04/04 04:59:54;;;;;;;7.75;2.97;;;7.20;99.90;;;;;;5022027;28;20021;-71
2022/04/04 05:02:20;;;;;;;6.53;3.00;;;7.20;99.90;;;;;;4989902;28;20277;-71
2022/04/04 05:04:46;;;;;;;9.27;2.60;;;7.30;99.90;;;;;;5023498;28;20052;-70
2022/04/04 05:07:13;;;;;;;8.30;3.15;;;7.30;99.90;;;;;;5005867;28;20038;-72
2022/04/04 05:09:39;;;;;;;6.03;3.50;;;7.30;99.90;;;;;;5005813;28;20022;-72
2022/04/04 05:12:06;;;;;;;10.75;3.72;;;7.30;99.90;;;;;;5021892;28;20033;-71
2022/04/04 05:14:32;;;;;;;9.85;3.15;;;7.30;99.90;;;;;;5022457;28;20022;-72
2022/04/04 05:16:57;;;;;;;3.80;2.58;;;7.20;99.90;;;;;;5020423;28;20096;-71
2022/04/04 05:19:23;;;;;;;6.05;3.92;;;7.20;99.90;;;;;;4989560;28;20025;-72
2022/04/04 05:21:50;;;;;;;4.43;3.05;;;7.20;99.90;;;;;;4989620;28;20018;-72
2022/04/04 05:24:16;;;;;;;7.97;3.90;;;7.20;99.90;;;;;;5023102;28;20014;-70
2022/04/04 05:26:42;;;;;;;7.90;3.55;;;7.20;99.90;;;;;;5021987;28;20088;-71
2022/04/04 05:29:08;;;;;;;6.30;3.42;;;7.20;99.90;;;;;;5022982;28;20081;-71
2022/04/04 05:31:35;;;;;;;4.93;3.58;;;7.20;99.90;;;;;;5021901;28;20022;-71
2022/04/04 05:34:04;;;;;;;9.25;4.63;;;7.20;99.90;;;;;;5021540;28;20360;-70
2022/04/04 05:36:30;;;;;;;8.05;3.78;;;7.20;99.90;;;;;;4989781;28;20096;-69
2022/04/04 05:38:57;;;;;;;5.30;3.67;;;7.20;99.90;;;;;;5021460;28;20197;-71
2022/04/04 05:41:24;;;;;;;4.63;4.00;;;7.20;99.90;;;;;;5005325;28;20045;-72
2022/04/04 05:43:50;;;;;;;4.43;3.53;;;7.30;99.90;;;;;;5008981;28;20037;-70
2022/04/04 05:46:17;;;;;;;9.48;3.40;;;7.30;99.90;;;;;;5024888;28;20013;-72
2022/04/04 05:48:44;;;;;;;9.40;4.55;;;7.20;99.90;;;;;;5008697;28;20056;-71
2022/04/04 05:51:10;;;;;;;8.40;4.30;;;7.20;99.90;;;;;;5025312;28;20060;-72
2022/04/04 05:53:37;;;;;;;5.25;3.85;;;7.20;99.90;;;;;;5025244;28;20275;-72
2022/04/04 05:56:03;;;;;;;5.43;3.65;;;7.20;99.90;;;;;;5026632;28;20045;-70
2022/04/04 05:58:29;;;;;;;4.40;3.45;;;7.20;99.90;;;;;;5024751;28;20037;-71
2022/04/04 06:00:56;;;;;;;3.90;3.20;;;7.30;99.90;;;;;;5025188;28;20018;-68
2022/04/04 06:03:21;;;;;;;5.20;2.90;;;7.30;99.90;;;;;;5024958;28;20032;-72
2022/04/04 06:05:50;;;;;;;5.55;2.40;;;7.40;99.90;;;;;;5024674;28;20049;-69
2022/04/04 06:08:17;;;;;;;5.35;2.20;;;7.50;99.90;;;;;;5008497;28;20061;-69
2022/04/04 06:10:46;;;;;;;3.53;2.22;;;7.70;99.90;;;;;;4992496;28;20056;-70
2022/04/04 06:13:13;;;;;;;4.63;2.05;;;7.80;99.90;;;;;;5008750;28;20096;-71
2022/04/04 06:15:40;;;;;;;5.40;1.90;;;8.00;99.90;;;;;;5008797;28;20033;-72
2022/04/04 06:18:06;;;;;;;3.55;1.65;;;8.10;99.90;;;;;;5006703;28;20029;-71
2022/04/04 06:20:32;;;;;;;8.18;1.70;;;8.20;99.90;;;;;;5008523;28;20026;-72
2022/04/04 06:22:58;;;;;;;4.07;1.30;;;8.20;99.90;;;;;;5012052;28;20096;-70
2022/04/04 06:25:24;;;;;;;4.93;1.42;;;8.30;99.90;;;;;;5024525;28;20033;-68
2022/04/04 06:27:50;;;;;;;3.70;1.27;;;8.40;99.90;;;;;;5030496;28;20055;-72
2022/04/04 06:30:16;;;;;;;8.73;1.50;;;8.40;99.90;;;;;;5023972;28;20032;-69
2022/04/04 06:32:43;;;;;;;3.45;1.42;;;8.50;99.90;;;;;;5024412;28;20089;-71
2022/04/04 06:35:10;;;;;;;4.57;1.63;;;8.50;99.90;;;;;;5025612;28;20014;-72
2022/04/04 06:37:37;;;;;;;9.52;1.65;;;8.50;99.90;;;;;;5008395;28;20092;-71
2022/04/04 06:40:04;;;;;;;5.50;1.40;;;8.60;99.90;;;;;;5025644;28;20106;-71
2022/04/04 06:42:35;;;;;;;8.60;1.98;;;8.60;99.90;;;;;;5007801;28;20028;-71
2022/04/04 06:45:01;;;;;;;8.45;2.30;;;8.60;99.90;;;;;;5024173;28;20026;-71
2022/04/04 06:47:27;;;;;;;7.35;1.45;;;8.70;99.90;;;;;;5024164;28;20046;-71
2022/04/04 06:49:53;;;;;;;7.15;1.20;;;8.80;99.90;;;;;;5024383;28;20017;-70
2022/04/04 06:52:19;;;;;;;3.38;1.23;;;8.80;99.90;;;;;;5007543;28;20026;-70
2022/04/04 06:54:48;;;;;;;5.47;1.50;;;8.80;99.90;;;;;;5008416;28;20018;-71
2022/04/04 06:57:15;;;;;;;5.88;1.20;;;8.90;99.90;;;;;;5008294;28;20313;-72
2022/04/04 06:59:42;;;;;;;2.95;1.20;;;9.00;99.90;;;;;;5026735;28;20067;-73
2022/04/04 07:02:08;;;;;;;4.35;1.42;;;9.00;99.90;;;;;;5043722;28;20025;-70
2022/04/04 07:04:34;;;;;;;6.05;1.40;;;9.00;99.90;;;;;;5044009;28;20018;-72
2022/04/04 07:07:00;;;;;;;5.70;1.20;;;9.10;99.90;;;;;;5027632;28;20025;-74
2022/04/04 07:09:25;;;;;;;4.57;1.65;;;9.20;99.90;;;;;;5040026;28;20040;-73
2022/04/04 07:11:51;;;;;;;14.38;1.42;;;9.20;99.90;;;;;;4986575;28;20018;-72
2022/04/04 07:14:18;;;;;;;7.63;0.93;;;9.30;99.90;;;;;;4990267;28;20026;-73
2022/04/04 07:16:44;;;;;;;7.68;1.05;;;9.30;99.90;;;;;;5007336;28;20080;-77
2022/04/04 07:19:15;;;;;;;4.30;1.00;;;9.40;99.90;;;;;;5022144;28;20213;-76
2022/04/04 07:21:42;;;;;;;6.60;1.23;;;9.40;99.90;;;;;;4998205;28;20022;-74
2022/04/04 07:24:08;;;;;;;5.53;1.27;;;9.50;99.90;;;;;;5018083;28;20033;-75
2022/04/04 07:26:34;;;;;;;5.00;1.00;;;9.60;99.90;;;;;;5003237;28;20022;-75
2022/04/04 07:28:59;;;;;;;3.72;1.52;;;9.70;99.90;;;;;;5006760;28;20068;-69
2022/04/04 07:31:25;;;;;;;8.30;1.48;;;9.70;99.90;;;;;;5003646;28;20030;-73
2022/04/04 07:33:51;;;;;;;10.00;1.70;;;9.80;99.90;;;;;;5015996;28;20032;-76
2022/04/04 07:36:17;;;;;;;11.40;1.40;;;9.80;99.90;;;;;;5006842;28;20340;-74
2022/04/04 07:38:43;;;;;;;5.45;1.65;;;9.80;99.90;;;;;;5023164;28;20232;-74
2022/04/04 07:41:09;;;;;;;5.53;1.50;;;9.90;99.90;;;;;;5023341;28;20014;-73
2022/04/04 07:43:35;;;;;;;7.70;1.40;;;9.90;99.90;;;;;;5023952;28;20156;-75
2022/04/04 07:46:01;;;;;;;8.38;2.03;;;10.00;99.90;;;;;;5023904;28;20356;-73
2022/04/04 07:48:27;;;;;;;4.72;2.15;;;10.00;99.90;;;;;;5022713;28;20045;-72
2022/04/04 07:50:53;;;;;;;12.15;2.50;;;10.10;99.90;;;;;;5021514;28;20256;-73
2022/04/04 07:53:20;;;;;;;7.43;2.25;;;10.10;99.90;;;;;;5006116;28;20038;-72
2022/04/04 07:55:46;;;;;;;7.80;2.17;;;10.20;99.90;;;;;;5024585;28;20048;-73
2022/04/04 07:58:13;;;;;;;11.75;3.00;;;10.20;99.90;;;;;;5006795;28;20044;-73
2022/04/04 08:00:38;;;;;;;8.57;2.38;;;10.20;99.90;;;;;;5023332;28;20037;-74
2022/04/04 08:03:05;;;;;;;6.57;2.53;;;10.30;99.90;;;;;;5006811;28;20048;-73
2022/04/04 08:05:31;;;;;;;4.65;2.55;;;10.30;99.90;;;;;;5006373;28;20022;-75
2022/04/04 08:07:57;;;;;;;8.75;3.03;;;10.40;99.90;;;;;;5002594;28;20026;-74
2022/04/04 08:10:23;;;;;;;10.50;3.38;;;10.40;99.90;;;;;;5019928;28;20034;-74
2022/04/04 08:12:51;;;;;;;11.50;3.42;;;10.40;99.90;;;;;;5026928;28;20037;-72
2022/04/04 08:15:17;;;;;;;11.77;3.05;;;10.40;99.90;;;;;;5021434;28;20017;-73
2022/04/04 08:17:43;;;;;;;13.40;3.38;;;10.40;99.90;;;;;;5005958;28;20018;-72
2022/04/04 08:20:10;;;;;;;13.40;3.35;;;10.50;99.90;;;;;;5004312;28;20037;-72
2022/04/04 08:22:40;;;;;;;14.05;4.10;;;10.50;99.90;;;;;;4985871;28;20309;-71
2022/04/04 08:25:06;;;;;;;11.52;3.60;;;10.50;99.90;;;;;;5009860;28;20018;-74
2022/04/04 08:27:32;;;;;;;12.15;3.85;;;10.50;99.90;;;;;;5022039;28;20069;-73
2022/04/04 08:29:58;;;;;;;11.38;3.72;;;10.60;99.90;;;;;;5023169;28;20025;-73
2022/04/04 08:32:24;;;;;;;10.68;3.50;;;10.60;99.90;;;;;;4985834;28;20248;-74
2022/04/04 08:34:49;;;;;;;11.48;3.30;;;10.70;99.90;;;;;;4996262;28;20284;-73
2022/04/04 08:37:15;;;;;;;12.40;3.85;;;10.70;99.90;;;;;;5005626;28;20089;-73
2022/04/04 08:39:44;;;;;;;10.35;3.95;;;10.70;99.90;;;;;;5021941;28;20034;-75
2022/04/04 08:42:11;;;;;;;14.55;4.20;;;10.80;99.90;;;;;;5021466;28;20030;-76
2022/04/04 08:44:39;;;;;;;16.08;4.70;;;10.80;99.90;;;;;;5022063;28;20018;-76
2022/04/04 08:47:06;;;;;;;12.40;4.68;;;10.90;99.90;;;;;;5005455;28;20049;-74
2022/04/04 08:49:32;;;;;;;14.65;5.35;;;10.90;99.90;;;;;;5022199;28;20248;-75
2022/04/04 08:51:58;;;;;;;12.68;4.70;;;11.00;99.90;;;;;;5021248;28;20075;-74
2022/04/04 08:54:24;;;;;;;11.73;4.75;;;11.00;99.90;;;;;;5021579;28;20022;-75
2022/04/04 08:56:50;;;;;;;13.77;5.35;;;11.00;99.90;;;;;;5022852;28;20077;-73
2022/04/04 08:59:16;;;;;;;13.07;5.88;;;11.10;99.90;;;;;;5005573;28;20022;-73
2022/04/04 09:01:42;;;;;;;18.00;5.72;;;11.00;99.90;;;;;;5021662;28;20320;-73
2022/04/04 09:04:16;;;;;;;17.08;6.60;;;11.10;99.90;;;;;;5022180;28;20018;-75
2022/04/04 09:06:57;;;;;;;20.60;6.47;;;11.10;99.90;;;;;;5021903;28;20021;-75
2022/04/04 09:09:36;;;;;;;17.35;6.40;;;11.20;99.90;;;;;;5005051;28;20045;-73
2022/04/04 09:12:15;;;;;;;19.00;7.93;;;11.20;99.90;;;;;;5021708;28;20034;-74
2022/04/04 09:14:46;;;;;;;18.58;7.07;;;11.30;99.90;;;;;;5005938;28;20021;-74
2022/04/04 09:17:14;;;;;;;21.95;7.55;;;11.30;99.90;;;;;;5023109;28;20348;-74
2022/04/04 09:19:41;;;;;;;21.23;8.95;;;11.40;99.90;;;;;;5006859;28;20060;-72
2022/04/04 09:22:10;;;;;;;27.65;9.98;;;11.40;99.90;;;;;;5026597;28;20037;-73
2022/04/04 09:24:56;;;;;;;28.23;9.43;;;11.50;99.90;;;;;;5006109;28;20018;-74
2022/04/04 09:27:25;;;;;;;18.50;7.95;;;11.60;99.90;;;;;;4997840;28;20036;-74
2022/04/04 09:29:55;;;;;;;23.02;8.88;;;11.80;99.90;;;;;;5026125;28;20272;-75
2022/04/04 09:32:22;;;;;;;22.00;9.65;;;11.90;99.90;;;;;;5021285;28;20014;-74
2022/04/04 09:35:08;;;;;;;24.02;9.77;;;12.00;99.90;;;;;;5032110;28;20025;-74
2022/04/04 09:37:36;;;;;;;24.50;10.05;;;12.00;99.90;;;;;;4995470;28;20097;-74
2022/04/04 09:40:18;;;;;;;25.05;9.73;;;12.00;99.90;;;;;;5008356;28;20072;-75
2022/04/04 09:42:58;;;;;;;22.95;10.20;;;12.00;99.90;;;;;;5025134;28;20053;-76
2022/04/04 09:45:26;;;;;;;20.08;8.85;;;12.00;99.90;;;;;;5013194;28;20033;-73
2022/04/04 09:48:09;;;;;;;19.58;9.52;;;12.00;99.90;;;;;;5024550;28;20244;-75
2022/04/04 09:50:50;;;;;;;23.52;10.32;;;12.10;99.90;;;;;;5010810;28;20097;-73
2022/04/04 09:53:25;;;;;;;24.33;9.45;;;12.10;99.90;;;;;;5010213;28;20101;-74
2022/04/04 09:55:55;;;;;;;22.13;8.88;;;12.10;99.90;;;;;;5008321;28;20022;-74
2022/04/04 09:58:22;;;;;;;19.60;7.97;;;12.10;99.90;;;;;;5009427;28;20304;-75
2022/04/04 10:00:49;;;;;;;23.15;9.98;;;12.10;99.90;;;;;;5025849;28;20056;-77
2022/04/04 10:03:16;;;;;;;18.02;9.43;;;12.00;99.90;;;;;;5026264;28;20032;-72
2022/04/04 10:05:44;;;;;;;26.48;10.25;;;12.10;99.90;;;;;;5026186;28;20022;-74
2022/04/04 10:08:16;;;;;;;23.90;9.05;;;12.10;99.90;;;;;;5026570;28;20333;-73
2022/04/04 10:10:43;;;;;;;22.85;9.35;;;12.10;99.90;;;;;;5025623;28;20022;-72
2022/04/04 10:13:11;;;;;;;21.48;9.25;;;12.10;99.90;;;;;;5028034;28;20038;-73
2022/04/04 10:15:37;;;;;;;24.85;9.68;;;12.20;99.90;;;;;;5026938;28;20216;-72
2022/04/04 10:18:04;;;;;;;24.00;9.27;;;12.30;99.90;;;;;;5008891;28;20017;-74
2022/04/04 10:20:30;;;;;;;24.83;9.32;;;12.40;99.90;;;;;;5023433;28;20025;-73
2022/04/04 10:22:57;;;;;;;25.23;9.00;;;12.60;99.90;;;;;;5025970;28;20025;-72
2022/04/04 10:25:27;;;;;;;24.27;8.95;;;12.80;99.90;;;;;;5025823;28;20013;-74
2022/04/04 10:27:53;;;;;;;24.75;8.68;;;13.00;99.90;;;;;;5025187;28;20042;-75
2022/04/04 10:30:31;;;;;;;20.35;8.52;;;13.10;99.90;;;;;;5008003;28;20053;-72
2022/04/04 10:32:57;;;;;;;21.80;8.80;;;13.30;99.90;;;;;;4992034;28;20017;-76
2022/04/04 10:35:26;;;;;;;24.65;9.40;;;13.20;99.90;;;;;;5024142;28;20024;-76
2022/04/04 10:37:52;;;;;;;19.27;9.63;;;13.30;99.90;;;;;;4992221;28;20376;-76
2022/04/04 10:40:24;;;;;;;19.77;9.15;;;13.40;99.90;;;;;;5024008;28;20021;-75
2022/04/04 10:43:11;;;;;;;22.25;8.85;;;13.40;99.90;;;;;;5024143;28;20025;-74
2022/04/04 10:45:58;;;;;;;20.08;8.35;;;13.60;99.90;;;;;;5023791;28;20355;-74
2022/04/04 10:48:33;;;;;;;17.83;8.10;;;13.80;99.90;;;;;;4990916;28;20038;-75
2022/04/04 10:51:20;;;;;;;17.58;7.65;;;14.10;99.90;;;;;;5004545;28;20023;-74
2022/04/04 10:53:53;;;;;;;21.08;8.20;;;14.00;99.90;;;;;;4995181;28;20016;-74
2022/04/04 10:56:25;;;;;;;22.98;7.78;;;14.00;99.90;;;;;;5008002;28;20043;-73
2022/04/04 10:58:52;;;;;;;19.27;7.57;;;14.10;99.90;;;;;;5007743;28;20033;-73
2022/04/04 11:01:21;;;;;;;22.05;7.47;;;14.00;99.90;;;;;;4991176;28;20313;-75
2022/04/04 11:04:01;;;;;;;14.52;7.10;;;14.10;99.90;;;;;;5007241;28;20022;-74
2022/04/04 11:09:34;;;;;;;15.48;6.70;;;14.10;99.90;;;;;;5010002;28;20030;-72
2022/04/04 11:12:11;;;;;;;15.52;7.20;;;14.10;99.90;;;;;;5007161;28;20021;-73
2022/04/04 11:14:42;;;;;;;18.98;7.90;;;14.10;99.90;;;;;;5040056;28;20033;-73
2022/04/04 11:17:28;;;;;;;18.80;7.77;;;14.10;99.90;;;;;;4990657;28;20096;-73
2022/04/04 11:20:00;;;;;;;20.92;7.65;;;14.10;99.90;;;;;;5023651;28;20290;-73
2022/04/04 11:22:28;;;;;;;21.63;7.00;;;14.30;99.90;;;;;;5019954;28;20192;-73
2022/04/04 11:24:58;;;;;;;14.43;6.50;;;14.40;99.90;;;;;;4987634;28;20076;-72
2022/04/04 11:27:26;;;;;;;21.10;6.88;;;14.50;99.90;;;;;;5003691;28;20306;-73
2022/04/04 11:29:52;;;;;;;13.65;6.93;;;14.70;99.90;;;;;;5002888;28;20026;-70
2022/04/04 11:32:31;;;;;;;17.30;6.60;;;14.70;99.90;;;;;;5004088;28;20033;-70
2022/04/04 11:35:01;;;;;;;22.83;7.35;;;14.90;99.90;;;;;;4995383;28;20042;-70
2022/04/04 11:37:29;;;;;;;15.00;6.70;;;14.90;99.90;;;;;;5003002;28;20018;-70
2022/04/04 11:40:03;;;;;;;20.83;6.90;;;14.90;99.90;;;;;;5009050;28;20018;-71
2022/04/04 11:42:30;;;;;;;15.95;6.78;;;15.00;99.90;;;;;;4991673;28;20167;-71
2022/04/04 11:44:58;;;;;;;17.40;7.68;;;14.90;99.90;;;;;;5023774;28;20017;-71
2022/04/04 11:47:24;;;;;;;25.80;8.07;;;14.90;99.90;;;;;;5018590;28;20154;-73
2022/04/04 11:49:53;;;;;;;19.08;6.10;;;14.90;99.90;;;;;;5019012;28;20340;-75
2022/04/04 11:52:19;;;;;;;15.23;7.00;;;15.00;99.90;;;;;;5002628;28;20314;-72
2022/04/04 11:54:50;;;;;;;18.02;7.13;;;15.00;99.90;;;;;;5019487;28;20313;-72
2022/04/04 11:57:18;;;;;;;23.77;7.93;;;14.90;99.90;;;;;;5019082;28;20022;-71
2022/04/04 11:59:49;;;;;;;12.07;6.47;;;14.90;99.90;;;;;;5004133;28;20034;-71
2022/04/04 12:02:14;;;;;;;35.13;8.40;;;15.10;99.90;;;;;;5018863;28;20022;-73
2022/04/04 12:04:43;;;;;;;13.73;6.07;;;15.20;99.90;;;;;;5003060;28;20022;-73
2022/04/04 12:07:11;;;;;;;15.77;6.97;;;15.20;99.90;;;;;;5018986;28;20061;-71
2022/04/04 12:09:37;;;;;;;19.48;7.20;;;15.10;99.90;;;;;;5018835;28;20073;-72
2022/04/04 12:12:06;;;;;;;16.23;6.85;;;15.20;99.90;;;;;;5038017;28;20197;-72
2022/04/04 12:14:34;;;;;;;13.48;7.18;;;15.40;99.90;;;;;;5021804;28;20209;-71
2022/04/04 12:17:00;;;;;;;18.05;7.65;;;15.60;99.90;;;;;;5005791;28;20052;-74
2022/04/04 12:19:26;;;;;;;15.35;6.75;;;15.80;99.90;;;;;;5006462;28;20089;-72
2022/04/04 12:21:53;;;;;;;13.63;6.43;;;16.20;99.90;;;;;;5022722;28;20038;-74
2022/04/04 12:27:08;;;;;;;11.95;6.80;;;16.30;99.90;;;;;;5022434;28;20034;-73
2022/04/04 12:29:40;;;;;;;14.82;6.70;;;16.40;99.90;;;;;;5005812;28;20201;-72
2022/04/04 12:32:15;;;;;;;9.43;5.75;;;16.40;99.90;;;;;;5006017;28;20096;-74
2022/04/04 12:34:55;;;;;;;11.55;6.05;;;16.50;99.90;;;;;;5005877;28;20024;-70
2022/04/04 12:37:30;;;;;;;7.50;4.95;;;16.50;99.90;;;;;;5003355;28;20301;-72
2022/04/04 12:40:15;;;;;;;14.38;5.85;;;16.50;99.90;;;;;;5018799;28;20049;-72
2022/04/04 12:42:41;;;;;;;9.93;4.93;;;16.30;99.90;;;;;;5003149;28;20030;-71
2022/04/04 12:45:07;;;;;;;10.02;5.53;;;16.20;99.90;;;;;;5008844;28;20033;-73
2022/04/04 12:47:34;;;;;;;11.07;5.28;;;16.20;99.90;;;;;;5004770;28;20352;-71
2022/04/04 12:50:15;;;;;;;7.90;4.47;;;16.50;99.90;;;;;;5023159;28;20061;-71
2022/04/04 12:53:02;;;;;;;11.35;4.82;;;16.60;99.70;;;;;;5011955;28;20033;-71
2022/04/04 12:55:28;;;;;;;10.70;4.13;;;16.40;99.90;;;;;;5028443;28;20026;-73
2022/04/04 12:57:55;;;;;;;11.88;4.68;;;16.20;99.90;;;;;;5028388;28;20026;-73
2022/04/04 13:00:32;;;;;;;8.43;4.35;;;16.20;99.90;;;;;;5012247;28;20096;-71